Darstellungsparameter: Aktuell verwendete Einstellungen:
Skalierung der Graphiken ... ?
xyx+y,   Skalierungsfaktor:      Skalierung: Modus: x, Faktor: 1
Darstellungszeitraum ... ?
Vom - - bis: - -   Zeitraum: 05.12.2008 - 06.12.2008
Min/Max/Avg-Anzeige ... ?
Zeige MMA aktuell
Zeige MMA Monat
Zeige MMA alles
Zeige --A aktuell
Zeige --A Monat
Zeige --A alles
Keine MMA-Anzeige
MMA:
Keine MMA-Graphiken
MMA-Basis: 05.12.2008 - 06.12.2008
Quicknavigation für Darstellung... ?
Tage:      1T, 2T, 3T, 5T -1T -2T -3T -5T +1T +2T +3T +5T
Wochen: 1W, 2W, 3W -1W -2W -3W +1W +2W +3W
Monate: 1M, 3M, 6M -1M -3M -6M +1M +3M +6M
Jahre:    1J, 3J, 5J, 10J -1J -3J -5J -10J +1J +3J +5J +10J
Nutze für die Darstellung ... ?
Originaldaten oder Mittelwerte auf ...
Stundenbasis Tagesbasis Wochenbasis
Monatsbasis Jahresbasis      Datenbasis: Original-Daten
Darstellen als:
Statistik (Auto) Statistik J:M      Darstellung:
Zur Graphik,    zurück zur Übersicht aller Sensoren.
 
Tabellarische Datenbersicht: ?
 
Sensor: Nr:Datum:Temp:Abs-Feuchte:Windchill:Wind:
Aussen-T/F 1 05-12-2008 00:00:04 5 C 6.25 g/m*3 5 C 0 km/h
2 05-12-2008 00:12:04 5 C 6.25 g/m*3 5 C 0 km/h
3 05-12-2008 00:24:04 5 C 6.18 g/m*3 5 C 0 km/h
4 05-12-2008 00:36:04 5 C 6.18 g/m*3 5 C 0 km/h
5 05-12-2008 00:48:04 4.9 C 6.21 g/m*3 4.9 C 0 km/h
6 05-12-2008 01:00:04 4.8 C 6.17 g/m*3 4.8 C 0 km/h
7 05-12-2008 01:12:04 4.8 C 6.17 g/m*3 4.8 C 0 km/h
8 05-12-2008 01:24:04 4.4 C 6.01 g/m*3 4.4 C 0 km/h
9 05-12-2008 01:36:04 4.4 C 6.01 g/m*3 4.4 C 0 km/h
10 05-12-2008 01:48:04 4.6 C 6.15 g/m*3 4.6 C 0 km/h
11 05-12-2008 02:00:04 4.7 C 6.19 g/m*3 4.7 C 0 km/h
12 05-12-2008 02:12:04 4.7 C 6.26 g/m*3 4.7 C 0 km/h
13 05-12-2008 02:24:04 4.9 C 6.35 g/m*3 4.9 C 0 km/h
14 05-12-2008 02:36:04 5 C 6.32 g/m*3 5 C 0 km/h
15 05-12-2008 02:48:04 5.2 C 6.4 g/m*3 5.2 C 0 km/h
16 05-12-2008 03:00:04 4.7 C 6.19 g/m*3 4.7 C 0 km/h
17 05-12-2008 03:12:04 4.8 C 6.24 g/m*3 4.8 C 0 km/h
18 05-12-2008 03:24:04 5 C 6.32 g/m*3 5 C 0 km/h
19 05-12-2008 03:36:04 5.4 C 6.42 g/m*3 5.4 C 0 km/h
20 05-12-2008 03:48:05 5.5 C 6.39 g/m*3 5.5 C 0 km/h
21 05-12-2008 04:00:05 5.5 C 6.32 g/m*3 5.5 C 0 km/h
22 05-12-2008 04:12:05 5.2 C 6.13 g/m*3 5.2 C 0 km/h
23 05-12-2008 04:24:05 5.2 C 6.13 g/m*3 5.2 C 0 km/h
24 05-12-2008 04:36:05 4.9 C 6.08 g/m*3 4.9 C 0 km/h
25 05-12-2008 04:48:05 4.6 C 5.96 g/m*3 4.6 C 0 km/h
Sensor: Nr:Datum:Temp:Abs-Feuchte:Windchill:Wind:
Aussen-T/F 26 05-12-2008 05:00:05 4.4 C 5.94 g/m*3 4.4 C 0 km/h
27 05-12-2008 05:12:05 4.4 C 5.94 g/m*3 4.4 C 0 km/h
28 05-12-2008 05:24:05 4.3 C 5.9 g/m*3 4.3 C 0 km/h
29 05-12-2008 05:36:05 4.3 C 5.97 g/m*3 4.3 C 0 km/h
30 05-12-2008 05:48:05 4.4 C 6.01 g/m*3 4.4 C 0 km/h
31 05-12-2008 06:00:05 4.5 C 6.05 g/m*3 4.5 C 0 km/h
32 05-12-2008 06:12:05 4.6 C 6.09 g/m*3 4.6 C 0 km/h
33 05-12-2008 06:24:05 4.6 C 6.15 g/m*3 4.6 C 0 km/h
34 05-12-2008 06:36:04 4.5 C 6.11 g/m*3 4.5 C 0 km/h
35 05-12-2008 06:48:03 4.4 C 6.07 g/m*3 4.4 C 0 km/h
36 05-12-2008 07:00:03 4.4 C 6.07 g/m*3 4.4 C 0 km/h
37 05-12-2008 07:12:02 4.4 C 6.07 g/m*3 4.4 C 0 km/h
38 05-12-2008 07:24:03 4.3 C 6.03 g/m*3 4.3 C 0 km/h
39 05-12-2008 07:36:02 4.1 C 5.95 g/m*3 4.1 C 0 km/h
40 05-12-2008 07:48:02 4.1 C 5.95 g/m*3 4.1 C 0 km/h
41 05-12-2008 08:00:02 4.2 C 5.99 g/m*3 4.2 C 0 km/h
42 05-12-2008 08:12:02 4.3 C 6.03 g/m*3 4.3 C 0 km/h
43 05-12-2008 08:24:02 4.4 C 6.07 g/m*3 4.4 C 0 km/h
44 05-12-2008 08:36:02 4.3 C 6.03 g/m*3 4.3 C 0 km/h
45 05-12-2008 08:48:01 4.4 C 6.07 g/m*3 4.4 C 0 km/h
46 05-12-2008 09:00:01 4.5 C 6.11 g/m*3 4.5 C 0 km/h
47 05-12-2008 09:12:02 4.6 C 6.15 g/m*3 4.6 C 0 km/h
48 05-12-2008 09:24:01 5 C 6.18 g/m*3 5 C 0 km/h
49 05-12-2008 09:36:02 5.2 C 6.2 g/m*3 5.2 C 0 km/h
50 05-12-2008 09:48:02 5.3 C 6.17 g/m*3 5.3 C 0 km/h
Sensor: Nr:Datum:Temp:Abs-Feuchte:Windchill:Wind:
Aussen-T/F 51 05-12-2008 10:00:02 5.6 C 6.22 g/m*3 5.6 C 0 km/h
52 05-12-2008 10:12:02 5.7 C 6.26 g/m*3 5.7 C 0 km/h
53 05-12-2008 10:24:02 6 C 6.17 g/m*3 6 C 0 km/h
54 05-12-2008 10:36:02 6.2 C 6.03 g/m*3 6.2 C 0 km/h
55 05-12-2008 10:48:02 6.3 C 6 g/m*3 6.3 C 0 km/h
56 05-12-2008 11:00:02 6.5 C 5.85 g/m*3 6.5 C 0 km/h
57 05-12-2008 11:12:02 6.5 C 5.85 g/m*3 6.5 C 0 km/h
58 05-12-2008 11:24:02 6.5 C 5.85 g/m*3 6.5 C 0 km/h
59 05-12-2008 11:36:02 6.3 C 5.85 g/m*3 6.3 C 0 km/h
60 05-12-2008 11:48:01 6.1 C 5.84 g/m*3 6.1 C 0 km/h
61 05-12-2008 12:00:01 5.8 C 5.8 g/m*3 5.8 C 0 km/h
62 05-12-2008 12:12:02 5.7 C 5.84 g/m*3 5.7 C 0 km/h
63 05-12-2008 12:24:01 5.7 C 5.69 g/m*3 5.7 C 0 km/h
64 05-12-2008 12:36:02 6 C 5.66 g/m*3 6 C 0 km/h
65 05-12-2008 12:48:02 6.3 C 5.63 g/m*3 6.3 C 0 km/h
66 05-12-2008 13:00:02 6.5 C 5.62 g/m*3 6.5 C 0 km/h
67 05-12-2008 13:12:02 6.9 C 5.7 g/m*3 6.9 C 0 km/h
68 05-12-2008 13:24:02 7 C 5.58 g/m*3 7 C 0 km/h
69 05-12-2008 13:36:02 7.1 C 5.54 g/m*3 7.1 C 0 km/h
70 05-12-2008 13:48:02 7.1 C 5.46 g/m*3 7.1 C 0 km/h
71 05-12-2008 14:00:02 7.5 C 5.6 g/m*3 7.5 C 0 km/h
72 05-12-2008 14:12:02 7.5 C 5.44 g/m*3 7.5 C 0 km/h
73 05-12-2008 14:24:02 7.4 C 5.49 g/m*3 7.4 C 0 km/h
74 05-12-2008 14:36:02 7.4 C 5.49 g/m*3 7.4 C 0 km/h
75 05-12-2008 14:48:01 7.3 C 5.53 g/m*3 7.3 C 0 km/h
Sensor: Nr:Datum:Temp:Abs-Feuchte:Windchill:Wind:
Aussen-T/F 76 05-12-2008 15:00:01 7.4 C 5.57 g/m*3 7.4 C 0 km/h
77 05-12-2008 15:12:02 7.2 C 5.49 g/m*3 7.2 C 0 km/h
78 05-12-2008 15:24:01 7.3 C 5.53 g/m*3 7.3 C 0 km/h
79 05-12-2008 15:36:02 7.5 C 5.6 g/m*3 7.5 C 0 km/h
80 05-12-2008 15:48:02 7.4 C 5.49 g/m*3 7.4 C 0 km/h
81 05-12-2008 16:00:03 7.2 C 5.42 g/m*3 7.2 C 0 km/h
82 05-12-2008 16:12:02 7.1 C 5.46 g/m*3 7.1 C 0 km/h
83 05-12-2008 16:24:02 6.7 C 5.55 g/m*3 6.7 C 0 km/h
84 05-12-2008 16:36:02 6.4 C 5.59 g/m*3 6.4 C 0 km/h
85 05-12-2008 16:48:02 6.3 C 5.7 g/m*3 6.3 C 0 km/h
86 05-12-2008 17:00:02 5.9 C 5.7 g/m*3 5.9 C 0 km/h
87 05-12-2008 17:12:02 5.6 C 5.8 g/m*3 5.6 C 0 km/h
88 05-12-2008 17:24:02 5.5 C 5.97 g/m*3 5.5 C 0 km/h
89 05-12-2008 17:36:02 5.2 C 5.99 g/m*3 5.2 C 0 km/h
90 05-12-2008 17:48:03 5 C 5.98 g/m*3 5 C 0 km/h
91 05-12-2008 18:00:03 4.9 C 6.01 g/m*3 4.9 C 0 km/h
92 05-12-2008 18:12:06 4.8 C 6.04 g/m*3 4.8 C 0 km/h
93 05-12-2008 18:24:03 4.7 C 6.06 g/m*3 4.7 C 0 km/h
94 05-12-2008 18:36:06 4.6 C 6.09 g/m*3 4.6 C 0 km/h
95 05-12-2008 18:48:16 4.8 C 6.24 g/m*3 4.8 C 0 km/h
96 05-12-2008 19:00:16 5 C 6.25 g/m*3 5 C 0 km/h
97 05-12-2008 19:12:02 5 C 6.25 g/m*3 5 C 0 km/h
98 05-12-2008 19:24:02 5 C 6.25 g/m*3 5 C 0 km/h
99 05-12-2008 19:36:04 5 C 6.25 g/m*3 5 C 0 km/h
100 05-12-2008 19:48:03 5 C 6.25 g/m*3 5 C 0 km/h
Sensor: Nr:Datum:Temp:Abs-Feuchte:Windchill:Wind:
Aussen-T/F 101 05-12-2008 20:00:03 5 C 6.25 g/m*3 5 C 0 km/h
102 05-12-2008 20:12:03 4.7 C 6.06 g/m*3 4.7 C 0 km/h
103 05-12-2008 20:24:03 4.7 C 6.06 g/m*3 4.7 C 0 km/h
104 05-12-2008 20:36:02 4.8 C 6.1 g/m*3 4.8 C 0 km/h
105 05-12-2008 20:48:02 5 C 6.05 g/m*3 5 C 0 km/h
106 05-12-2008 21:00:03 5.1 C 6.09 g/m*3 5.1 C 0 km/h
107 05-12-2008 21:12:02 5.2 C 6.06 g/m*3 5.2 C 0 km/h
108 05-12-2008 21:24:02 5.1 C 6.02 g/m*3 5.1 C 0 km/h
109 05-12-2008 21:36:02 5 C 5.98 g/m*3 5 C 0 km/h
110 05-12-2008 21:48:02 4.9 C 6.01 g/m*3 4.9 C 0 km/h
111 05-12-2008 22:00:02 4.9 C 6.01 g/m*3 4.9 C 0 km/h
112 05-12-2008 22:12:02 4.9 C 6.08 g/m*3 4.9 C 0 km/h
113 05-12-2008 22:24:02 4.8 C 6.04 g/m*3 4.8 C 0 km/h
114 05-12-2008 22:37:02 4.9 C 6.14 g/m*3 4.9 C 0 km/h
115 05-12-2008 22:49:02 4.9 C 6.14 g/m*3 4.9 C 0 km/h
116 05-12-2008 23:01:02 5 C 6.12 g/m*3 5 C 0 km/h
117 05-12-2008 23:13:02 4.9 C 6.14 g/m*3 4.9 C 0 km/h
118 05-12-2008 23:25:02 4.9 C 6.14 g/m*3 4.9 C 0 km/h
119 05-12-2008 23:37:02 5 C 6.12 g/m*3 5 C 0 km/h
120 05-12-2008 23:49:02 5 C 6.05 g/m*3 5 C 0 km/h
121 06-12-2008 00:01:02 4.8 C 5.97 g/m*3 4.8 C 0 km/h
122 06-12-2008 00:13:02 4.6 C 5.89 g/m*3 4.6 C 0 km/h
123 06-12-2008 00:25:02 4.6 C 5.96 g/m*3 4.6 C 0 km/h
124 06-12-2008 00:37:02 4.6 C 6.02 g/m*3 4.6 C 0 km/h
125 06-12-2008 00:49:02 4.5 C 5.98 g/m*3 4.5 C 0 km/h
Sensor: Nr:Datum:Temp:Abs-Feuchte:Windchill:Wind:
Aussen-T/F 126 06-12-2008 01:01:02 4.4 C 5.88 g/m*3 4.4 C 0 km/h
127 06-12-2008 01:13:02 4.2 C 5.8 g/m*3 4.2 C 0 km/h
128 06-12-2008 01:25:02 4.1 C 5.76 g/m*3 4.1 C 0 km/h
129 06-12-2008 01:37:02 4 C 5.66 g/m*3 4 C 0 km/h
130 06-12-2008 01:49:02 4 C 5.72 g/m*3 4 C 0 km/h
131 06-12-2008 02:01:02 4.1 C 5.76 g/m*3 4.1 C 0 km/h
132 06-12-2008 02:13:02 4.1 C 5.76 g/m*3 4.1 C 0 km/h
133 06-12-2008 02:25:03 4.3 C 5.77 g/m*3 4.3 C 0 km/h
134 06-12-2008 02:37:03 4.4 C 5.75 g/m*3 4.4 C 0 km/h
135 06-12-2008 02:49:03 4.5 C 5.65 g/m*3 4.5 C 0 km/h
136 06-12-2008 03:01:03 4.6 C 5.62 g/m*3 4.6 C 0 km/h
137 06-12-2008 03:13:03 4.4 C 5.48 g/m*3 4.4 C 0 km/h
138 06-12-2008 03:25:03 4.2 C 5.48 g/m*3 4.2 C 0 km/h
139 06-12-2008 03:37:03 4.4 C 5.62 g/m*3 4.4 C 0 km/h
140 06-12-2008 03:49:03 4.5 C 5.59 g/m*3 4.5 C 0 km/h
141 06-12-2008 04:01:03 4.5 C 5.65 g/m*3 4.5 C 0 km/h
142 06-12-2008 04:13:03 4.5 C 5.65 g/m*3 4.5 C 0 km/h
143 06-12-2008 04:25:03 4.5 C 5.72 g/m*3 4.5 C 0 km/h
144 06-12-2008 04:37:03 4.6 C 5.69 g/m*3 4.6 C 0 km/h
145 06-12-2008 04:49:03 4.7 C 5.73 g/m*3 4.7 C 0 km/h
146 06-12-2008 05:01:03 4.7 C 5.66 g/m*3 4.7 C 0 km/h
147 06-12-2008 05:13:03 4.7 C 5.66 g/m*3 4.7 C 0 km/h
148 06-12-2008 05:25:03 4.6 C 5.62 g/m*3 4.6 C 0 km/h
149 06-12-2008 05:37:03 4.5 C 5.59 g/m*3 4.5 C 0 km/h
150 06-12-2008 05:49:03 4.8 C 5.63 g/m*3 4.8 C 0 km/h
Sensor: Nr:Datum:Temp:Abs-Feuchte:Windchill:Wind:
Aussen-T/F 151 06-12-2008 06:01:03 4.7 C 5.6 g/m*3 4.7 C 0 km/h
152 06-12-2008 06:13:03 4.8 C 5.63 g/m*3 4.8 C 0 km/h
153 06-12-2008 06:25:03 5 C 5.64 g/m*3 5 C 0 km/h
154 06-12-2008 06:37:04 4.8 C 5.63 g/m*3 4.8 C 0 km/h
155 06-12-2008 06:49:04 4.8 C 5.63 g/m*3 4.8 C 0 km/h
156 06-12-2008 07:01:04 4.8 C 5.63 g/m*3 4.8 C 0 km/h
157 06-12-2008 07:13:04 4.7 C 5.66 g/m*3 4.7 C 0 km/h
158 06-12-2008 07:25:04 4.8 C 5.7 g/m*3 4.8 C 0 km/h
159 06-12-2008 07:37:04 4.7 C 5.73 g/m*3 4.7 C 0 km/h
160 06-12-2008 07:49:04 4.6 C 5.69 g/m*3 4.6 C 0 km/h
161 06-12-2008 08:01:04 4.6 C 5.82 g/m*3 4.6 C 0 km/h
162 06-12-2008 08:13:04 4.5 C 5.78 g/m*3 4.5 C 0 km/h
163 06-12-2008 08:25:02 4.4 C 5.81 g/m*3 4.4 C 0 km/h
164 06-12-2008 08:37:02 4.4 C 5.88 g/m*3 4.4 C 0 km/h
165 06-12-2008 08:49:02 4.4 C 5.94 g/m*3 4.4 C 0 km/h
166 06-12-2008 09:01:37 4.5 C 5.98 g/m*3 4.5 C 0 km/h
167 06-12-2008 09:13:37 4.5 C 5.98 g/m*3 4.5 C 0 km/h
168 06-12-2008 09:25:37 4.5 C 5.98 g/m*3 4.5 C 0 km/h
169 06-12-2008 09:37:37 4.6 C 6.02 g/m*3 4.6 C 0 km/h
170 06-12-2008 09:49:37 4.6 C 6.02 g/m*3 4.6 C 0 km/h
171 06-12-2008 10:01:37 4.8 C 6.1 g/m*3 4.8 C 0 km/h
172 06-12-2008 10:13:37 5 C 6.12 g/m*3 5 C 0 km/h
173 06-12-2008 10:25:37 5.3 C 6.17 g/m*3 5.3 C 0 km/h
174 06-12-2008 10:37:37 5.4 C 6.07 g/m*3 5.4 C 0 km/h
175 06-12-2008 10:49:37 5.4 C 5.93 g/m*3 5.4 C 0 km/h
Sensor: Nr:Datum:Temp:Abs-Feuchte:Windchill:Wind:
Aussen-T/F 176 06-12-2008 11:01:37 5.4 C 5.79 g/m*3 5.4 C 0 km/h
177 06-12-2008 11:13:37 5.5 C 5.76 g/m*3 5.5 C 0 km/h
178 06-12-2008 11:25:38 5.7 C 5.84 g/m*3 5.7 C 0 km/h
179 06-12-2008 11:37:38 5.9 C 5.84 g/m*3 5.9 C 0 km/h
180 06-12-2008 11:49:38 6 C 5.66 g/m*3 6 C 0 km/h
181 06-12-2008 12:01:38 5.9 C 5.7 g/m*3 5.9 C 0 km/h
182 06-12-2008 12:13:38 5.7 C 5.62 g/m*3 5.7 C 0 km/h
183 06-12-2008 12:25:38 5.7 C 5.62 g/m*3 5.7 C 0 km/h
184 06-12-2008 12:37:38 5.5 C 5.62 g/m*3 5.5 C 0 km/h
185 06-12-2008 12:49:38 5.3 C 5.61 g/m*3 5.3 C 0 km/h
186 06-12-2008 13:01:38 5.2 C 5.71 g/m*3 5.2 C 0 km/h
187 06-12-2008 13:13:38 5.2 C 5.85 g/m*3 5.2 C 0 km/h
188 06-12-2008 13:25:38 5.1 C 5.75 g/m*3 5.1 C 0 km/h
189 06-12-2008 13:37:38 4.9 C 5.87 g/m*3 4.9 C 0 km/h
190 06-12-2008 13:49:38 4.9 C 5.94 g/m*3 4.9 C 0 km/h
191 06-12-2008 14:01:38 4.9 C 5.87 g/m*3 4.9 C 0 km/h
192 06-12-2008 14:13:38 5.1 C 5.95 g/m*3 5.1 C 0 km/h
193 06-12-2008 14:25:38 5.2 C 5.92 g/m*3 5.2 C 0 km/h
194 06-12-2008 14:37:38 5.3 C 5.96 g/m*3 5.3 C 0 km/h
195 06-12-2008 14:49:38 5.3 C 5.89 g/m*3 5.3 C 0 km/h
196 06-12-2008 15:01:01 5.3 C 5.89 g/m*3 5.3 C 0 km/h
197 06-12-2008 15:13:01 5.2 C 5.85 g/m*3 5.2 C 0 km/h
198 06-12-2008 15:25:02 5.2 C 5.92 g/m*3 5.2 C 0 km/h
199 06-12-2008 15:37:03 5.2 C 5.92 g/m*3 5.2 C 0 km/h
200 06-12-2008 15:49:02 5.2 C 5.92 g/m*3 5.2 C 0 km/h
Sensor: Nr:Datum:Temp:Abs-Feuchte:Windchill:Wind:
Aussen-T/F 201 06-12-2008 16:01:08 5 C 5.84 g/m*3 5 C 0 km/h
202 06-12-2008 16:13:08 5 C 5.91 g/m*3 5 C 0 km/h
203 06-12-2008 16:25:02 5 C 5.98 g/m*3 5 C 0 km/h
204 06-12-2008 16:37:01 5 C 5.98 g/m*3 5 C 0 km/h
205 06-12-2008 16:49:02 5 C 5.98 g/m*3 5 C 0 km/h
206 06-12-2008 17:01:01 5 C 6.05 g/m*3 5 C 0 km/h
207 06-12-2008 17:13:01 5 C 6.05 g/m*3 5 C 0 km/h
208 06-12-2008 17:25:01 5 C 6.05 g/m*3 5 C 0 km/h
209 06-12-2008 17:37:01 5 C 6.12 g/m*3 5 C 0 km/h
210 06-12-2008 17:49:01 5 C 6.12 g/m*3 5 C 0 km/h
211 06-12-2008 18:01:00 5 C 6.12 g/m*3 5 C 0 km/h
212 06-12-2008 18:13:00 4.9 C 6.14 g/m*3 4.9 C 0 km/h
213 06-12-2008 18:25:00 4.9 C 6.21 g/m*3 4.9 C 0 km/h
214 06-12-2008 18:37:01 4.9 C 6.21 g/m*3 4.9 C 0 km/h
215 06-12-2008 18:49:01 4.8 C 6.17 g/m*3 4.8 C 0 km/h
216 06-12-2008 19:01:00 4.7 C 6.13 g/m*3 4.7 C 0 km/h
217 06-12-2008 19:13:00 4.5 C 6.05 g/m*3 4.5 C 0 km/h
218 06-12-2008 19:25:00 4.3 C 6.03 g/m*3 4.3 C 0 km/h
219 06-12-2008 19:37:00 4 C 5.85 g/m*3 4 C 0 km/h
220 06-12-2008 19:49:00 4 C 5.85 g/m*3 4 C 0 km/h
221 06-12-2008 20:01:00 4.3 C 6.03 g/m*3 4.3 C 0 km/h
222 06-12-2008 20:13:00 4.4 C 6.14 g/m*3 4.4 C 0 km/h
223 06-12-2008 20:25:59 4.4 C 6.14 g/m*3 4.4 C 0 km/h
224 06-12-2008 20:37:00 4.4 C 6.14 g/m*3 4.4 C 0 km/h
225 06-12-2008 20:49:59 4.1 C 6.02 g/m*3 4.1 C 0 km/h
Sensor: Nr:Datum:Temp:Abs-Feuchte:Windchill:Wind:
Aussen-T/F 226 06-12-2008 21:01:59 3.9 C 6 g/m*3 3.9 C 0 km/h
227 06-12-2008 21:13:59 4 C 5.98 g/m*3 4 C 0 km/h
228 06-12-2008 21:25:59 4.1 C 6.08 g/m*3 4.1 C 0 km/h
229 06-12-2008 21:37:59 4.2 C 6.12 g/m*3 4.2 C 0 km/h
230 06-12-2008 21:49:58 4.3 C 6.16 g/m*3 4.3 C 0 km/h
231 06-12-2008 22:01:58 4.3 C 6.16 g/m*3 4.3 C 0 km/h
232 06-12-2008 22:13:58 4.4 C 6.2 g/m*3 4.4 C 0 km/h
233 06-12-2008 22:25:58 4.4 C 6.2 g/m*3 4.4 C 0 km/h
234 06-12-2008 22:37:58 4.4 C 6.2 g/m*3 4.4 C 0 km/h
235 06-12-2008 22:49:58 4.4 C 6.2 g/m*3 4.4 C 0 km/h
236 06-12-2008 23:02:58 4.4 C 6.2 g/m*3 4.4 C 0 km/h
237 06-12-2008 23:14:58 4.4 C 6.2 g/m*3 4.4 C 0 km/h
238 06-12-2008 23:26:58 4.4 C 6.2 g/m*3 4.4 C 0 km/h
239 06-12-2008 23:38:58 4.3 C 6.16 g/m*3 4.3 C 0 km/h
240 06-12-2008 23:50:58 4.3 C 6.16 g/m*3 4.3 C 0 km/h

Legende:
   Min
   Max


Maximal/Minimal-Werte vom 05.12.2008 - 06.12.2008

Sensor Min Max Avg
Temp
(Aussen-T/F)
3.9 °C
06-12-2008  21:01:59
7.5 °C
05-12-2008  14:00:02
5.05 °C
Abs-Feuchte
(Aussen-T/F)
5.42 g/m*3
05-12-2008  16:00:03
6.42 g/m*3
05-12-2008  03:36:04
5.91 g/m*3
Windchill
(Aussen-T/F)
3.9 C
06-12-2008  21:01:59
7.5 C
05-12-2008  14:00:02
5.02 C

Die Daten stammen von einer Davis Vantage Pro 2 Wetter-Station und werden unter Linux mit der Software wview2wettercgi und aufbereitet. Alle Angaben erfolgen ohne Gewähr für ihre Vollständigkeit oder Richtigkeit.
Kontakt: Rainer Krienke krienke@uni-koblenz.de . Meine Webseiten an der Uni Koblenz oder privat.
Version: $Revision: 0.78 $